createdAt,value
2018-11-20T00:00:17.053Z,4.3
2018-11-20T00:05:17.311Z,3.4
2018-11-20T00:10:16.647Z,2.2
2018-11-20T00:15:17.541Z,1.3
2018-11-20T00:20:17.774Z,2.1
2018-11-20T00:25:16.929Z,2.4
2018-11-20T00:30:16.829Z,4.2
2018-11-20T00:35:16.898Z,2
2018-11-20T00:40:17.225Z,3.1
2018-11-20T00:45:17.198Z,3
2018-11-20T00:50:17.157Z,3.8
2018-11-20T00:55:16.994Z,4.3
2018-11-20T01:00:17.006Z,1.9
2018-11-20T01:05:17.025Z,2.5
2018-11-20T01:10:17.287Z,2.6
2018-11-20T01:15:17.333Z,2.7
2018-11-20T01:20:17.498Z,2.4
2018-11-20T01:25:17.572Z,1.8
2018-11-20T01:30:17.463Z,2.1
2018-11-20T01:35:17.438Z,5.8
2018-11-20T01:40:17.566Z,3.9
2018-11-20T01:45:17.379Z,4
2018-11-20T01:50:17.265Z,6
2018-11-20T01:55:17.070Z,4
2018-11-20T02:00:16.842Z,3.9
2018-11-20T02:05:16.766Z,4.5
2018-11-20T02:10:16.881Z,4.4
2018-11-20T02:15:16.814Z,4.6
2018-11-20T02:20:16.790Z,4.4
2018-11-20T02:25:16.598Z,4.8
2018-11-20T02:30:17.593Z,4.8
2018-11-20T02:35:17.894Z,3.3
2018-11-20T02:40:16.858Z,2.2
2018-11-20T02:45:16.629Z,4.2
2018-11-20T02:50:17.577Z,5
2018-11-20T02:55:17.401Z,3.2
2018-11-20T03:00:17.184Z,4
2018-11-20T03:05:16.982Z,5
2018-11-20T03:10:17.006Z,5.2
2018-11-20T03:15:16.926Z,5.4
2018-11-20T03:20:17.289Z,5.1
2018-11-20T03:25:17.093Z,5.5
2018-11-20T03:30:16.918Z,5.6
2018-11-20T03:35:16.722Z,5.3
2018-11-20T03:40:16.696Z,4.6
2018-11-20T03:45:17.513Z,5.7
2018-11-20T03:50:17.426Z,5.6
2018-11-20T03:55:17.234Z,6.1
2018-11-20T04:00:17.309Z,6
2018-11-20T04:05:17.221Z,6.2
2018-11-20T04:10:17.321Z,4.2
2018-11-20T04:15:17.125Z,7.2
2018-11-20T04:20:17.130Z,4.7
2018-11-20T04:25:17.262Z,6.1
2018-11-20T04:30:17.111Z,5.3
2018-11-20T04:35:16.930Z,5.8
2018-11-20T04:40:16.953Z,6
2018-11-20T04:45:16.786Z,6.4
2018-11-20T04:50:16.590Z,6.1
2018-11-20T04:55:17.591Z,6
2018-11-20T05:00:17.395Z,6.4
2018-11-20T05:05:17.165Z,7.1
2018-11-20T05:10:17.165Z,7.7
2018-11-20T05:15:16.938Z,4.5
2018-11-20T05:20:16.938Z,6.3
2018-11-20T05:25:16.709Z,7.3
2018-11-20T05:30:17.618Z,7.4
2018-11-20T05:35:17.438Z,6.9
2018-11-20T05:40:18.067Z,6.1
2018-11-20T05:45:17.390Z,6.7
2018-11-20T05:50:17.386Z,6.9
2018-11-20T05:55:17.173Z,6.1
2018-11-20T06:00:17.107Z,7
2018-11-20T06:05:16.902Z,6.4
2018-11-20T06:10:16.917Z,6.4
2018-11-20T06:15:16.817Z,6.6
2018-11-20T06:20:17.290Z,6.5
2018-11-20T06:25:17.511Z,4.7
2018-11-20T06:30:17.550Z,3.4
2018-11-20T06:35:17.566Z,6.1
2018-11-20T06:40:16.656Z,7.1
2018-11-20T06:45:17.546Z,3
2018-11-20T06:50:17.337Z,3.5
2018-11-20T06:55:17.371Z,9.8
2018-11-20T07:00:17.322Z,7.1
2018-11-20T07:05:17.202Z,5.9
2018-11-20T07:10:17.301Z,7
2018-11-20T07:15:17.206Z,2.4
2018-11-20T07:20:17.970Z,7.5
2018-11-20T07:25:16.890Z,6.5
2018-11-20T07:30:17.108Z,6.9
2018-11-20T07:35:17.325Z,7
2018-11-20T07:40:17.580Z,6.9
2018-11-20T07:45:23.549Z,8.6
2018-11-20T07:50:17.512Z,6.6
2018-11-20T07:55:18.077Z,8.5
2018-11-20T08:00:17.349Z,8.1
2018-11-20T08:05:17.526Z,7.3
2018-11-20T08:10:17.899Z,7.4
2018-11-20T08:15:17.106Z,9.5
2018-11-20T08:20:17.330Z,8.2
2018-11-20T08:25:17.719Z,7.9
2018-11-20T08:30:16.978Z,8.1
2018-11-20T08:35:16.973Z,9
2018-11-20T08:40:17.617Z,8.3
2018-11-20T08:45:17.514Z,9
2018-11-20T08:50:17.642Z,9.9
2018-11-20T08:55:17.733Z,9.6
2018-11-20T09:00:17.833Z,9.4
2018-11-20T09:05:17.202Z,11.7
2018-11-20T09:10:17.391Z,10.8
2018-11-20T09:15:17.546Z,6.9
2018-11-20T09:20:17.674Z,11.6
2018-11-20T09:25:16.994Z,11.1
2018-11-20T09:30:17.020Z,10.6
2018-11-20T09:35:17.346Z,6.4
2018-11-20T09:40:17.197Z,10.2
2018-11-20T09:45:17.386Z,10.4
2018-11-20T09:50:17.470Z,10.6
2018-11-20T09:55:17.463Z,9.9
2018-11-20T10:00:17.466Z,9
2018-11-20T10:05:17.530Z,6.9
2018-11-20T10:10:17.625Z,22.8
2018-11-20T10:15:17.497Z,9.2
2018-11-20T10:20:17.001Z,8.3
2018-11-20T10:25:16.968Z,17
2018-11-20T10:30:17.206Z,8.9
2018-11-20T10:35:17.282Z,8.3
2018-11-20T10:40:17.476Z,8.4
2018-11-20T10:45:17.614Z,7.9
2018-11-20T10:50:17.750Z,6.3
2018-11-20T10:55:16.853Z,7.8
2018-11-20T11:00:16.690Z,8.5
2018-11-20T11:05:17.870Z,9.6
2018-11-20T11:10:17.282Z,7.6
2018-11-20T11:15:17.318Z,8.7
2018-11-20T11:20:17.532Z,9.5
2018-11-20T11:25:17.567Z,8.6
2018-11-20T11:30:17.595Z,7.9
2018-11-20T11:35:17.433Z,8.2
2018-11-20T11:40:17.666Z,8.4
2018-11-20T11:45:17.707Z,6
2018-11-20T11:50:17.882Z,8
2018-11-20T11:55:16.938Z,7.7
2018-11-20T12:00:17.022Z,4.9
2018-11-20T12:05:17.029Z,7.3
2018-11-20T12:10:18.529Z,7.5
2018-11-20T12:15:17.605Z,7.3
2018-11-20T12:20:16.921Z,7.3
2018-11-20T12:25:16.824Z,7.5
2018-11-20T12:30:16.982Z,7
2018-11-20T12:35:17.037Z,7.9
2018-11-20T12:40:17.677Z,7.5
2018-11-20T12:45:17.726Z,8.5
2018-11-20T12:50:17.918Z,7.4
2018-11-20T12:55:17.054Z,10.5
2018-11-20T13:00:17.224Z,8.9
2018-11-20T13:05:17.489Z,6.6
2018-11-20T13:10:17.614Z,7.1
2018-11-20T13:15:17.834Z,6.7
2018-11-20T13:20:17.010Z,7.1
2018-11-20T13:25:17.128Z,7.1
2018-11-20T13:30:17.080Z,6.2
2018-11-20T13:35:17.243Z,7
2018-11-20T13:40:17.547Z,6.2
2018-11-20T13:45:18.519Z,6.8
2018-11-20T13:50:16.763Z,7.3
2018-11-20T13:55:17.186Z,6.7
2018-11-20T14:00:17.022Z,7
2018-11-20T14:05:17.196Z,5.5
2018-11-20T14:10:17.587Z,9.8
2018-11-20T14:15:17.778Z,8.2
2018-11-20T14:20:17.070Z,8.5
2018-11-20T14:25:17.058Z,9.7
2018-11-20T14:30:16.978Z,9.3
2018-11-20T14:35:16.898Z,10.2
2018-11-20T14:40:17.343Z,10.6
2018-11-20T14:45:17.433Z,10.3
2018-11-20T14:50:17.508Z,9.5
2018-11-20T14:55:17.454Z,10.2
2018-11-20T15:00:17.578Z,10.7
2018-11-20T15:05:17.515Z,10.3
2018-11-20T15:10:17.754Z,8.3
2018-11-20T15:15:16.649Z,10.8
2018-11-20T15:20:16.772Z,11.1
2018-11-20T15:25:16.789Z,11.4
2018-11-20T15:30:16.831Z,12.1
2018-11-20T15:35:16.991Z,7.8
2018-11-20T15:40:17.655Z,11.3
2018-11-20T15:45:17.504Z,11
2018-11-20T15:50:17.834Z,10.4
2018-11-20T15:55:16.819Z,11.6
2018-11-20T16:00:16.943Z,10.4
2018-11-20T16:05:17.018Z,11.6
2018-11-20T16:10:17.133Z,10.1
2018-11-20T16:15:17.191Z,10.4
2018-11-20T16:20:17.407Z,10.1
2018-11-20T16:25:17.702Z,10.2
2018-11-20T16:30:17.882Z,9.6
2018-11-20T16:35:16.860Z,8.6
2018-11-20T16:40:17.118Z,8.5
2018-11-20T16:45:17.123Z,10.3
2018-11-20T16:50:17.611Z,8.1
2018-11-20T16:55:17.642Z,8.6
2018-11-20T17:00:17.653Z,13.2
2018-11-20T17:05:17.617Z,8.7
2018-11-20T17:10:16.885Z,8.8
2018-11-20T17:15:17.165Z,8.2
2018-11-20T17:20:17.406Z,9.5
2018-11-20T17:25:17.381Z,8.4
2018-11-20T17:30:17.534Z,8.6
2018-11-20T17:35:17.686Z,8.9
2018-11-20T17:40:20.885Z,7.5
2018-11-20T17:45:22.126Z,9.2
2018-11-20T17:50:17.341Z,7.5
2018-11-20T17:55:17.517Z,9.8
2018-11-20T18:00:17.711Z,9.9
2018-11-20T18:05:16.954Z,9.3
2018-11-20T18:10:17.290Z,12.4
2018-11-20T18:15:17.324Z,11.4
2018-11-20T18:20:17.623Z,8
2018-11-20T18:25:17.625Z,5
2018-11-20T18:30:17.620Z,11.1
2018-11-20T18:35:17.702Z,11.1
2018-11-20T18:40:16.766Z,12.5
2018-11-20T18:45:17.114Z,10.7
2018-11-20T18:50:17.378Z,11.8
2018-11-20T18:55:17.289Z,14.3
2018-11-20T19:00:17.303Z,7.4
2018-11-20T19:05:17.383Z,19.2
2018-11-20T19:10:17.735Z,17
2018-11-20T19:15:17.806Z,9.5
2018-11-20T19:20:16.885Z,21.7
2018-11-20T19:25:17.019Z,10.7
2018-11-20T19:30:17.012Z,11.7
2018-11-20T19:35:17.463Z,10.3
2018-11-20T19:40:17.791Z,12.9
2018-11-20T19:45:16.846Z,26
2018-11-20T19:50:16.747Z,14.1
2018-11-20T19:55:17.900Z,10.4
2018-11-20T20:00:16.803Z,12.6
2018-11-20T20:05:16.754Z,13.1
2018-11-20T20:10:18.302Z,13.8
2018-11-20T20:15:17.547Z,10.5
2018-11-20T20:20:17.734Z,18.4
2018-11-20T20:25:17.657Z,10.8
2018-11-20T20:30:17.743Z,19.3
2018-11-20T20:35:16.657Z,8.9
2018-11-20T20:40:16.996Z,13
2018-11-20T20:45:17.341Z,14.4
2018-11-20T20:50:17.296Z,14.7
2018-11-20T20:55:17.204Z,17.6
2018-11-20T21:00:17.413Z,10.6
2018-11-20T21:05:17.531Z,10.9
2018-11-20T21:10:16.651Z,16.1
2018-11-20T21:15:20.941Z,16.3
2018-11-20T21:20:17.363Z,11.9
2018-11-20T21:25:17.376Z,14.6
2018-11-20T21:30:17.303Z,9.4
2018-11-20T21:35:17.469Z,16.4
2018-11-20T21:40:17.764Z,14.9
2018-11-20T21:45:16.643Z,17.6
2018-11-20T21:50:17.557Z,15.6
2018-11-20T21:55:17.716Z,19.5
2018-11-20T22:00:17.858Z,11.8
2018-11-20T22:05:16.762Z,10.2
2018-11-20T22:10:16.878Z,8.1
2018-11-20T22:15:16.995Z,10.7
2018-11-20T22:20:17.191Z,13.8
2018-11-20T22:25:17.490Z,23.8
2018-11-20T22:30:17.360Z,9.9
2018-11-20T22:35:17.551Z,12.1
2018-11-20T22:40:16.670Z,8
2018-11-20T22:45:17.567Z,18.1
2018-11-20T22:50:17.787Z,10.9
2018-11-20T22:55:16.799Z,10.2
2018-11-20T23:00:16.870Z,11.5
2018-11-20T23:05:16.802Z,19.5
2018-11-20T23:10:17.259Z,19.8
2018-11-20T23:15:17.522Z,24.1
2018-11-20T23:20:17.606Z,14.2
2018-11-20T23:25:17.642Z,7.8
2018-11-20T23:30:17.698Z,14.1
2018-11-20T23:35:17.753Z,10.3
2018-11-20T23:40:17.013Z,12.2
2018-11-20T23:45:17.026Z,13.3
2018-11-20T23:50:16.998Z,10.3
2018-11-20T23:55:16.955Z,11.3
